createdAt,value
2022-08-09T00:01:04.910Z,101575.52
2022-08-09T00:04:05.983Z,101585.02
2022-08-09T00:06:35.236Z,101587.20
2022-08-09T00:09:07.558Z,101588.99
2022-08-09T00:12:02.740Z,101585.20
2022-08-09T00:14:38.474Z,101588.44
2022-08-09T00:18:04.347Z,101588.62
2022-08-09T00:20:04.748Z,101592.33
2022-08-09T00:22:37.256Z,101588.77
2022-08-09T00:25:12.951Z,101588.93
2022-08-09T00:27:47.978Z,101589.58
2022-08-09T00:30:26.058Z,101592.08
2022-08-09T00:32:58.978Z,101589.10
2022-08-09T00:35:43.207Z,101591.36
2022-08-09T00:38:16.342Z,101589.91
2022-08-09T00:40:53.861Z,101591.28
2022-08-09T00:44:16.635Z,101591.05
2022-08-09T00:46:55.364Z,101597.92
2022-08-09T00:49:12.697Z,101595.67
2022-08-09T00:51:55.853Z,101600.02
2022-08-09T00:54:35.145Z,101601.08
2022-08-09T00:57:10.973Z,101604.64
2022-08-09T00:59:46.299Z,101598.11
2022-08-09T01:02:22.723Z,101573.84
2022-08-09T01:05:02.648Z,101595.30
2022-08-09T01:08:01.009Z,101600.07
2022-08-09T01:10:39.305Z,101603.79
2022-08-09T01:13:22.144Z,101599.98
2022-08-09T01:15:57.833Z,101602.16
2022-08-09T01:18:33.635Z,101604.19
2022-08-09T01:21:18.541Z,101603.88
2022-08-09T01:24:05.696Z,101606.70
2022-08-09T01:26:59.227Z,101607.03
2022-08-09T01:29:41.221Z,101604.70
2022-08-09T01:32:34.088Z,101604.05
2022-08-09T01:35:28.620Z,101599.77
2022-08-09T01:38:10.502Z,101601.23
2022-08-09T01:40:52.506Z,101601.55
2022-08-09T01:43:26.047Z,101601.63
2022-08-09T01:45:59.208Z,101605.90
2022-08-09T01:48:32.718Z,101605.42
2022-08-09T01:51:06.539Z,101596.41
2022-08-09T01:53:43.706Z,101607.87
2022-08-09T01:56:22.552Z,101609.97
2022-08-09T01:58:56.563Z,101609.66
2022-08-09T02:01:59.622Z,101607.23
2022-08-09T02:04:26.174Z,101597.22
2022-08-09T02:07:18.370Z,101602.88
2022-08-09T02:10:05.489Z,101602.32
2022-08-09T02:12:39.464Z,101600.23
2022-08-09T02:15:17.141Z,101598.29
2022-08-09T02:18:00.425Z,101589.67
2022-08-09T02:20:43.270Z,101600.33
2022-08-09T02:23:23.156Z,101599.75
2022-08-09T02:25:57.744Z,101594.83
2022-08-09T02:28:35.382Z,101599.10
2022-08-09T02:31:09.907Z,101599.51
2022-08-09T02:34:07.212Z,101599.20
2022-08-09T02:36:42.186Z,101597.67
2022-08-09T02:39:20.245Z,101602.02
2022-08-09T02:42:07.827Z,101600.17
2022-08-09T02:44:42.803Z,101603.73
2022-08-09T02:47:17.914Z,101590.98
2022-08-09T02:50:02.043Z,101602.59
2022-08-09T02:52:39.930Z,101608.02
2022-08-09T02:55:20.072Z,101598.24
2022-08-09T02:58:00.476Z,101611.32
2022-08-09T03:00:58.570Z,101614.63
2022-08-09T03:04:13.179Z,101613.17
2022-08-09T03:06:27.467Z,101608.41
2022-08-09T03:09:01.583Z,101616.98
2022-08-09T03:12:11.045Z,101619.88
2022-08-09T03:14:32.026Z,101618.44
2022-08-09T03:17:05.508Z,101619.64
2022-08-09T03:19:58.201Z,101622.22
2022-08-09T03:22:41.989Z,101618.92
2022-08-09T03:25:26.087Z,101620.05
2022-08-09T03:28:01.049Z,101620.63
2022-08-09T03:30:36.808Z,101620.77
2022-08-09T03:33:17.835Z,101619.25
2022-08-09T03:36:12.760Z,101620.86
2022-08-09T03:38:46.636Z,101624.50
2022-08-09T03:41:18.980Z,101620.38
2022-08-09T03:44:07.587Z,101620.04
2022-08-09T03:46:41.332Z,101617.70
2022-08-09T03:49:16.679Z,101623.35
2022-08-09T03:52:00.090Z,101622.55
2022-08-09T03:54:38.532Z,101618.67
2022-08-09T03:57:20.292Z,101618.50
2022-08-09T04:00:00.521Z,101625.44
2022-08-09T04:02:34.776Z,101620.52
2022-08-09T04:05:17.094Z,101626.59
2022-08-09T04:08:00.576Z,101611.10
2022-08-09T04:10:33.074Z,101627.33
2022-08-09T04:13:11.583Z,101623.84
2022-08-09T04:16:20.659Z,101629.27
2022-08-09T04:18:38.187Z,101627.88
2022-08-09T04:21:11.586Z,101616.91
2022-08-09T04:23:54.381Z,101629.73
2022-08-09T04:26:35.235Z,101633.35
2022-08-09T04:29:15.488Z,101625.20
2022-08-09T04:31:48.331Z,101643.44
2022-08-09T04:34:30.785Z,101641.91
2022-08-09T04:37:07.212Z,101640.61
2022-08-09T04:39:41.006Z,101644.40
2022-08-09T04:42:15.910Z,101644.00
2022-08-09T04:44:50.839Z,101637.79
2022-08-09T04:47:25.840Z,101650.77
2022-08-09T04:50:05.886Z,101651.58
2022-08-09T04:52:42.264Z,101651.16
2022-08-09T04:55:15.468Z,101652.70
2022-08-09T04:57:59.220Z,101651.40
2022-08-09T05:00:36.044Z,101654.07
2022-08-09T05:03:30.665Z,101659.14
2022-08-09T05:06:04.584Z,101655.98
2022-08-09T05:08:44.001Z,101654.05
2022-08-09T05:11:20.065Z,101654.67
2022-08-09T05:13:54.941Z,101653.55
2022-08-09T05:16:31.507Z,101646.54
2022-08-09T05:19:04.208Z,101657.81
2022-08-09T05:21:47.241Z,101660.89
2022-08-09T05:24:28.114Z,101659.02
2022-08-09T05:27:00.288Z,101662.39
2022-08-09T05:29:35.525Z,101664.00
2022-08-09T05:32:08.630Z,101666.10
2022-08-09T05:34:43.005Z,101666.81
2022-08-09T05:37:18.749Z,101665.59
2022-08-09T05:39:51.109Z,101669.55
2022-08-09T05:42:28.685Z,101670.98
2022-08-09T05:45:02.235Z,101672.84
2022-08-09T05:47:35.210Z,101671.46
2022-08-09T05:51:30.270Z,101667.56
2022-08-09T05:53:57.242Z,101667.73
2022-08-09T05:56:29.113Z,101669.27
2022-08-09T05:59:01.943Z,101669.27
2022-08-09T06:01:42.260Z,101673.46
2022-08-09T06:04:15.550Z,101677.56
2022-08-09T06:07:21.725Z,101666.27
2022-08-09T06:10:04.349Z,101681.59
2022-08-09T06:13:02.826Z,101683.19
2022-08-09T06:15:37.625Z,101680.35
2022-08-09T06:18:10.261Z,101680.59
2022-08-09T06:20:43.587Z,101680.82
2022-08-09T06:23:58.951Z,101686.23
2022-08-09T06:26:28.192Z,101688.30
2022-08-09T06:29:05.448Z,101690.88
2022-08-09T06:31:39.709Z,101693.05
2022-08-09T06:34:30.734Z,101696.36
2022-08-09T06:37:03.067Z,101697.55
2022-08-09T06:40:00.645Z,101699.58
2022-08-09T06:43:03.141Z,101702.48
2022-08-09T06:46:07.662Z,101703.44
2022-08-09T06:49:00.227Z,101700.12
2022-08-09T06:51:45.964Z,101703.81
2022-08-09T06:54:31.544Z,101704.94
2022-08-09T06:57:13.553Z,101709.13
2022-08-09T07:00:56.314Z,101701.07
2022-08-09T07:02:54.156Z,101708.15
2022-08-09T07:05:58.214Z,101715.34
2022-08-09T07:08:41.330Z,101718.33
2022-08-09T07:11:25.812Z,101721.81
2022-08-09T07:14:26.777Z,101716.39
2022-08-09T07:17:08.962Z,101721.71
2022-08-09T07:19:50.619Z,101717.75
2022-08-09T07:22:35.187Z,101724.75
2022-08-09T07:25:15.522Z,101727.50
2022-08-09T07:27:58.606Z,101727.98
2022-08-09T07:30:44.124Z,101729.32
2022-08-09T07:33:19.385Z,101735.22
2022-08-09T07:35:53.833Z,101735.85
2022-08-09T07:38:31.098Z,101712.63
2022-08-09T07:41:11.786Z,101740.02
2022-08-09T07:43:49.842Z,101742.98
2022-08-09T07:46:29.631Z,101746.02
2022-08-09T07:49:02.537Z,101747.54
2022-08-09T07:52:06.333Z,101748.80
2022-08-09T07:54:31.212Z,101752.89
2022-08-09T07:57:04.397Z,101751.23
2022-08-09T07:59:50.984Z,101751.91
2022-08-09T08:02:47.914Z,101751.22
2022-08-09T08:05:20.240Z,101742.01
2022-08-09T08:08:44.080Z,101750.80
2022-08-09T08:11:03.145Z,101755.17
2022-08-09T08:13:40.056Z,101753.29
2022-08-09T08:16:31.325Z,101748.98
2022-08-09T08:19:04.440Z,101747.96
2022-08-09T08:21:39.567Z,101752.56
2022-08-09T08:24:16.568Z,101750.69
2022-08-09T08:26:55.692Z,101752.95
2022-08-09T08:29:39.507Z,101752.16
2022-08-09T08:32:28.754Z,101749.46
2022-08-09T08:35:02.804Z,101751.09
2022-08-09T08:37:41.453Z,101752.57
2022-08-09T08:40:27.054Z,101756.20
2022-08-09T08:43:02.423Z,101757.19
2022-08-09T08:45:38.046Z,101756.27
2022-08-09T08:48:19.323Z,101756.75
2022-08-09T08:50:52.183Z,101755.50
2022-08-09T08:53:32.194Z,101742.73
2022-08-09T08:56:13.665Z,101738.38
2022-08-09T08:58:57.261Z,101753.59
2022-08-09T09:01:35.393Z,101747.08
2022-08-09T09:04:17.659Z,101752.80
2022-08-09T09:07:03.125Z,101752.20
2022-08-09T09:09:58.542Z,101753.73
2022-08-09T09:12:35.527Z,101753.02
2022-08-09T09:15:09.496Z,101757.96
2022-08-09T09:17:49.111Z,101759.85
2022-08-09T09:20:25.879Z,101763.06
2022-08-09T09:23:01.874Z,101756.96
2022-08-09T09:26:01.265Z,101761.33
2022-08-09T09:29:01.959Z,101758.48
2022-08-09T09:32:03.828Z,101759.08
2022-08-09T09:34:18.791Z,101755.80
2022-08-09T09:36:54.077Z,101760.33
2022-08-09T09:39:54.583Z,101731.96
2022-08-09T09:42:27.832Z,101757.09
2022-08-09T09:45:03.183Z,101755.92
2022-08-09T09:47:47.850Z,101754.88
2022-08-09T09:50:49.584Z,101757.09
2022-08-09T09:53:57.811Z,101758.20
2022-08-09T09:56:19.874Z,101753.48
2022-08-09T09:59:04.861Z,101754.02
2022-08-09T10:01:40.736Z,101755.79
2022-08-09T10:04:22.910Z,101736.15
2022-08-09T10:07:10.095Z,101747.05
2022-08-09T10:09:54.729Z,101745.08
2022-08-09T10:12:28.546Z,101726.73
2022-08-09T10:15:17.565Z,101727.17
2022-08-09T10:18:13.811Z,101735.91
2022-08-09T10:20:46.665Z,101736.09
2022-08-09T10:23:22.711Z,101737.55
2022-08-09T10:26:06.378Z,101737.73
2022-08-09T10:28:48.869Z,101734.05
2022-08-09T10:34:33.726Z,101736.17
2022-08-09T10:37:09.861Z,101733.11
2022-08-09T10:39:49.273Z,101726.90
2022-08-09T10:42:27.012Z,101725.48
2022-08-09T10:45:01.892Z,101724.67
2022-08-09T10:48:19.562Z,101718.90
2022-08-09T10:51:14.909Z,101719.21
2022-08-09T10:53:58.378Z,101720.02
2022-08-09T10:56:35.942Z,101717.63
2022-08-09T10:59:55.682Z,101707.69
2022-08-09T11:03:14.939Z,101708.77
2022-08-09T11:05:33.275Z,101695.40
2022-08-09T11:08:35.738Z,101702.98
2022-08-09T11:11:16.303Z,101700.90
2022-08-09T11:14:08.972Z,101700.70
2022-08-09T11:16:48.557Z,101700.59
2022-08-09T11:20:11.088Z,101700.52
2022-08-09T11:23:10.194Z,101699.33
2022-08-09T11:25:48.780Z,101698.31
2022-08-09T11:28:55.750Z,101698.38
2022-08-09T11:31:57.021Z,101704.00
2022-08-09T11:34:43.825Z,101704.30
2022-08-09T11:37:31.320Z,101695.92
2022-08-09T11:40:17.833Z,101692.15
2022-08-09T11:42:51.836Z,101700.02
2022-08-09T11:45:37.738Z,101697.17
2022-08-09T11:48:27.011Z,101701.68
2022-08-09T11:52:48.858Z,101700.07
2022-08-09T11:54:21.586Z,101696.79
2022-08-09T11:57:47.510Z,101702.79
2022-08-09T12:00:31.787Z,101700.14
2022-08-09T12:03:31.867Z,101694.77
2022-08-09T12:05:58.788Z,101698.10
2022-08-09T12:08:31.863Z,101696.80
2022-08-09T12:11:04.869Z,101693.50
2022-08-09T12:14:10.712Z,101691.31
2022-08-09T12:16:41.450Z,101693.68
2022-08-09T12:19:15.456Z,101698.34
2022-08-09T12:21:51.778Z,101692.89
2022-08-09T12:24:25.800Z,101685.98
2022-08-09T12:29:09.805Z,101688.73
2022-08-09T12:30:35.243Z,101679.05
2022-08-09T12:33:02.094Z,101668.77
2022-08-09T12:35:40.733Z,101675.51
2022-08-09T12:38:37.313Z,101672.73
2022-08-09T12:41:10.533Z,101671.67
2022-08-09T12:44:06.042Z,101668.95
2022-08-09T12:46:37.759Z,101672.05
2022-08-09T12:49:10.623Z,101672.56
2022-08-09T12:52:02.541Z,101668.03
2022-08-09T12:55:03.321Z,101661.93
2022-08-09T12:57:47.487Z,101657.27
2022-08-09T13:00:25.303Z,101660.23
2022-08-09T13:02:59.485Z,101651.66
2022-08-09T13:05:52.613Z,101651.42
2022-08-09T13:08:40.395Z,101650.16
2022-08-09T13:11:23.273Z,101637.04
2022-08-09T13:14:36.824Z,101644.92
2022-08-09T13:16:53.614Z,101635.19
2022-08-09T13:20:06.556Z,101643.61
2022-08-09T13:22:37.419Z,101644.90
2022-08-09T13:25:15.966Z,101638.23
2022-08-09T13:27:55.961Z,101637.66
2022-08-09T13:30:51.391Z,101634.34
2022-08-09T13:33:53.176Z,101635.02
2022-08-09T13:36:24.500Z,101632.41
2022-08-09T13:41:46.172Z,101634.44
2022-08-09T13:42:11.837Z,101631.77
2022-08-09T13:44:48.679Z,101634.87
2022-08-09T13:47:33.207Z,101634.20
2022-08-09T13:50:30.549Z,101634.61
2022-08-09T13:53:03.790Z,101626.92
2022-08-09T13:55:36.966Z,101632.61
2022-08-09T13:58:11.673Z,101632.50
2022-08-09T14:00:50.567Z,101633.50
2022-08-09T14:04:02.689Z,101625.98
2022-08-09T14:06:26.676Z,101635.27
2022-08-09T14:09:01.775Z,101637.10
2022-08-09T14:11:41.353Z,101618.98
2022-08-09T14:14:26.108Z,101632.14
2022-08-09T14:17:02.093Z,101631.08
2022-08-09T14:19:34.661Z,101629.71
2022-08-09T14:22:07.997Z,101633.64
2022-08-09T14:24:53.480Z,101633.78
2022-08-09T14:27:26.742Z,101635.79
2022-08-09T14:30:34.645Z,101627.95
2022-08-09T14:32:51.403Z,101631.18
2022-08-09T14:35:24.063Z,101629.15
2022-08-09T14:38:10.969Z,101629.77
2022-08-09T14:41:02.372Z,101635.17
2022-08-09T14:43:47.268Z,101627.29
2022-08-09T14:46:57.427Z,101616.95
2022-08-09T14:49:13.984Z,101626.09
2022-08-09T14:51:48.769Z,101630.48
2022-08-09T14:54:22.517Z,101627.98
2022-08-09T14:57:00.264Z,101623.02
2022-08-09T14:59:33.096Z,101623.44
2022-08-09T15:02:12.459Z,101605.98
2022-08-09T15:04:45.042Z,101623.73
2022-08-09T15:07:20.202Z,101623.96
2022-08-09T15:10:07.858Z,101620.83
2022-08-09T15:12:44.799Z,101618.05
2022-08-09T15:15:17.645Z,101616.16
2022-08-09T15:17:52.896Z,101616.27
2022-08-09T15:22:00.966Z,101612.39
2022-08-09T15:24:02.369Z,101609.88
2022-08-09T15:26:18.922Z,101605.25
2022-08-09T15:29:05.233Z,101606.96
2022-08-09T15:31:41.530Z,101602.14
2022-08-09T15:34:32.096Z,101604.61
2022-08-09T15:37:38.018Z,101606.48
2022-08-09T15:40:22.166Z,101605.19
2022-08-09T15:42:57.428Z,101609.41
2022-08-09T15:45:30.168Z,101612.73
2022-08-09T15:48:07.866Z,101616.48
2022-08-09T15:50:55.546Z,101620.25
2022-08-09T15:54:05.444Z,101620.11
2022-08-09T15:56:21.368Z,101614.11
2022-08-09T15:59:02.446Z,101614.52
2022-08-09T16:01:35.254Z,101616.00
2022-08-09T16:04:13.537Z,101600.61
2022-08-09T16:50:31.986Z,101607.58
2022-08-09T16:52:40.836Z,101611.09
2022-08-09T16:55:18.150Z,101608.49
2022-08-09T16:58:08.094Z,101610.09
2022-08-09T17:00:42.839Z,101615.39
2022-08-09T17:03:21.562Z,101620.44
2022-08-09T17:06:08.548Z,101624.04
2022-08-09T17:08:58.915Z,101605.36
2022-08-09T17:11:41.751Z,101625.65
2022-08-09T17:14:26.259Z,101612.83
2022-08-09T17:17:03.878Z,101628.02
2022-08-09T17:20:29.757Z,101630.43
2022-08-09T17:22:52.173Z,101630.59
2022-08-09T17:25:25.760Z,101633.85
2022-08-09T17:28:08.463Z,101640.97
2022-08-09T17:30:47.650Z,101640.80
2022-08-09T17:33:23.017Z,101634.17
2022-08-09T17:35:55.413Z,101640.92
2022-08-09T17:38:30.992Z,101646.58
2022-08-09T17:41:06.245Z,101648.41
2022-08-09T17:43:40.003Z,101648.34
2022-08-09T17:46:12.595Z,101649.00
2022-08-09T17:48:51.924Z,101645.71
2022-08-09T17:51:25.165Z,101640.06
2022-08-09T17:54:03.908Z,101653.02
2022-08-09T17:56:38.102Z,101651.42
2022-08-09T17:59:16.956Z,101648.24
2022-08-09T18:02:07.433Z,101653.09
2022-08-09T18:04:43.472Z,101656.40
2022-08-09T18:07:23.254Z,101654.05
2022-08-09T18:10:03.964Z,101653.35
2022-08-09T18:12:40.702Z,101636.52
2022-08-09T18:16:05.592Z,101640.37
2022-08-09T18:18:25.351Z,101662.16
2022-08-09T18:21:18.843Z,101661.23
2022-08-09T18:24:11.324Z,101661.41
2022-08-09T18:26:46.665Z,101667.55
2022-08-09T18:30:40.181Z,101668.77
2022-08-09T18:32:13.879Z,101641.90
2022-08-09T18:34:51.490Z,101670.16
2022-08-09T18:37:48.993Z,101673.16
2022-08-09T18:40:20.121Z,101677.77
2022-08-09T18:42:59.253Z,101676.98
2022-08-09T18:46:47.209Z,101682.61
2022-08-09T18:48:30.269Z,101668.30
2022-08-09T18:51:06.052Z,101684.05
2022-08-09T18:54:00.530Z,101687.02
2022-08-09T18:56:35.818Z,101691.92
2022-08-09T18:59:08.541Z,101694.92
2022-08-09T19:01:45.865Z,101694.40
2022-08-09T19:04:34.671Z,101682.80
2022-08-09T19:07:08.530Z,101708.54
2022-08-09T19:10:13.778Z,101704.20
2022-08-09T19:12:36.967Z,101702.86
2022-08-09T19:15:12.440Z,101711.73
2022-08-09T19:17:56.115Z,101713.04
2022-08-09T19:20:34.390Z,101715.88
2022-08-09T19:23:16.504Z,101717.99
2022-08-09T19:26:02.127Z,101715.79
2022-08-09T19:28:38.286Z,101705.74
2022-08-09T19:31:15.062Z,101715.06
2022-08-09T19:33:49.793Z,101713.65
2022-08-09T19:36:23.443Z,101715.69
2022-08-09T19:39:05.582Z,101718.04
2022-08-09T19:41:42.271Z,101715.91
2022-08-09T19:44:17.687Z,101714.93
2022-08-09T19:46:53.239Z,101717.60
2022-08-09T19:50:07.564Z,101714.20
2022-08-09T19:52:20.286Z,101711.54
2022-08-09T19:54:52.868Z,101708.86
2022-08-09T19:57:26.057Z,101710.52
2022-08-09T20:00:06.608Z,101718.45
2022-08-09T20:04:07.140Z,101719.47
2022-08-09T20:05:46.401Z,101718.96
2022-08-09T20:08:25.069Z,101720.87
2022-08-09T20:11:06.304Z,101729.41
2022-08-09T20:13:39.151Z,101736.08
2022-08-09T20:16:32.901Z,101737.23
2022-08-09T20:19:47.423Z,101738.98
2022-08-09T20:22:00.123Z,101737.33
2022-08-09T20:24:34.140Z,101745.77
2022-08-09T20:27:08.370Z,101746.56
2022-08-09T20:29:42.836Z,101745.61
2022-08-09T20:32:29.245Z,101728.94
2022-08-09T20:35:05.763Z,101745.17
2022-08-09T20:38:21.566Z,101742.13
2022-08-09T20:40:34.130Z,101740.63
2022-08-09T20:43:18.383Z,101739.67
2022-08-09T20:46:00.238Z,101732.82
2022-08-09T20:48:50.760Z,101731.88
2022-08-09T20:51:30.692Z,101728.90
2022-08-09T20:54:18.028Z,101716.35
2022-08-09T20:56:54.158Z,101712.40
2022-08-09T21:00:20.138Z,101731.38
2022-08-09T21:02:21.779Z,101713.11
2022-08-09T21:05:57.690Z,101733.45
2022-08-09T21:07:50.075Z,101736.55
2022-08-09T21:10:23.241Z,101737.45
2022-08-09T21:13:03.157Z,101744.84
2022-08-09T21:15:37.293Z,101749.73
2022-08-09T21:18:27.622Z,101749.75
2022-08-09T21:21:00.418Z,101734.05
2022-08-09T21:23:51.353Z,101751.16
2022-08-09T21:26:24.566Z,101755.15
2022-08-09T21:28:57.124Z,101757.84
2022-08-09T21:31:48.039Z,101755.09
2022-08-09T21:34:29.232Z,101734.39
2022-08-09T21:37:04.164Z,101754.65
2022-08-09T21:39:51.296Z,101742.14
2022-08-09T21:42:28.372Z,101758.64
2022-08-09T21:45:02.001Z,101760.02
2022-08-09T21:47:36.529Z,101756.71
2022-08-09T21:50:17.643Z,101764.57
2022-08-09T21:52:55.956Z,101762.80
2022-08-09T21:55:29.367Z,101762.81
2022-08-09T21:58:07.363Z,101764.58
2022-08-09T22:00:48.631Z,101770.23
2022-08-09T22:03:26.151Z,101770.00
2022-08-09T22:05:59.881Z,101772.67
2022-08-09T22:08:32.708Z,101770.16
2022-08-09T22:12:06.550Z,101772.52
2022-08-09T22:14:00.954Z,101773.26
2022-08-09T22:16:37.517Z,101768.66
2022-08-09T22:19:57.676Z,101765.04
2022-08-09T22:22:05.196Z,101770.04
2022-08-09T22:24:37.407Z,101774.48
2022-08-09T22:27:25.574Z,101759.08
2022-08-09T22:29:58.065Z,101771.74
2022-08-09T22:32:34.743Z,101773.13
2022-08-09T22:36:03.121Z,101766.34
2022-08-09T22:38:07.398Z,101759.31
2022-08-09T22:40:40.297Z,101769.41
2022-08-09T22:44:01.495Z,101768.52
2022-08-09T22:48:11.470Z,101771.20
2022-08-09T22:49:10.103Z,101775.14
2022-08-09T22:51:49.887Z,101770.86
2022-08-09T22:54:30.397Z,101771.58
2022-08-09T22:57:04.560Z,101772.05
2022-08-09T22:59:57.902Z,101771.79
2022-08-09T23:02:30.460Z,101773.41
2022-08-09T23:05:05.995Z,101771.30
2022-08-09T23:08:23.174Z,101772.02
2022-08-09T23:10:49.682Z,101770.80
2022-08-09T23:13:22.286Z,101769.76
2022-08-09T23:16:03.351Z,101771.20
2022-08-09T23:18:36.750Z,101775.23
2022-08-09T23:21:10.048Z,101765.21
2022-08-09T23:23:43.932Z,101772.80
2022-08-09T23:26:38.064Z,101766.83
2022-08-09T23:29:15.679Z,101769.89
2022-08-09T23:31:51.304Z,101753.73
2022-08-09T23:34:27.054Z,101772.63
2022-08-09T23:36:59.897Z,101770.94
2022-08-09T23:39:32.334Z,101775.61
2022-08-09T23:42:05.643Z,101775.59
2022-08-09T23:44:38.195Z,101774.30
2022-08-09T23:47:11.552Z,101779.12
2022-08-09T23:49:43.794Z,101781.38
2022-08-09T23:52:17.032Z,101782.02
2022-08-09T23:54:50.581Z,101776.35
2022-08-09T23:57:22.700Z,101779.58
